sensor_id;sensor_type;location;lat;lon;timestamp;temperature;humidity
46890;DHT22;32625;51.080;16.970;2022-09-03T00:00:54;15.00;93.10
46890;DHT22;32625;51.080;16.970;2022-09-03T00:03:39;15.10;93.10
46890;DHT22;32625;51.080;16.970;2022-09-03T00:06:15;15.00;93.20
46890;DHT22;32625;51.080;16.970;2022-09-03T00:08:49;15.00;93.30
46890;DHT22;32625;51.080;16.970;2022-09-03T00:11:28;15.00;93.50
46890;DHT22;32625;51.080;16.970;2022-09-03T00:16:49;15.00;93.30
46890;DHT22;32625;51.080;16.970;2022-09-03T00:19:21;15.00;93.10
46890;DHT22;32625;51.080;16.970;2022-09-03T00:22:16;14.90;93.10
46890;DHT22;32625;51.080;16.970;2022-09-03T00:24:46;14.80;93.70
46890;DHT22;32625;51.080;16.970;2022-09-03T00:27:23;14.80;93.60
46890;DHT22;32625;51.080;16.970;2022-09-03T00:29:59;14.80;93.20
46890;DHT22;32625;51.080;16.970;2022-09-03T00:35:15;14.60;93.90
46890;DHT22;32625;51.080;16.970;2022-09-03T00:37:43;14.70;93.60
46890;DHT22;32625;51.080;16.970;2022-09-03T00:46:32;14.50;94.20
46890;DHT22;32625;51.080;16.970;2022-09-03T00:52:13;14.50;94.00
46890;DHT22;32625;51.080;16.970;2022-09-03T00:55:24;14.40;94.10
46890;DHT22;32625;51.080;16.970;2022-09-03T01:00:26;14.40;94.70
46890;DHT22;32625;51.080;16.970;2022-09-03T01:03:07;14.30;94.50
46890;DHT22;32625;51.080;16.970;2022-09-03T01:17:00;14.20;94.50
46890;DHT22;32625;51.080;16.970;2022-09-03T01:20:00;14.20;94.90
46890;DHT22;32625;51.080;16.970;2022-09-03T01:30:44;14.10;94.50
46890;DHT22;32625;51.080;16.970;2022-09-03T01:33:34;14.00;95.10
46890;DHT22;32625;51.080;16.970;2022-09-03T01:36:16;14.00;95.30
46890;DHT22;32625;51.080;16.970;2022-09-03T01:38:57;13.90;95.90
46890;DHT22;32625;51.080;16.970;2022-09-03T01:50:50;13.70;96.00
46890;DHT22;32625;51.080;16.970;2022-09-03T01:59:41;13.60;96.30
46890;DHT22;32625;51.080;16.970;2022-09-03T02:02:24;13.60;96.40
46890;DHT22;32625;51.080;16.970;2022-09-03T02:05:07;13.60;96.00
46890;DHT22;32625;51.080;16.970;2022-09-03T02:10:11;13.50;96.20
46890;DHT22;32625;51.080;16.970;2022-09-03T02:12:41;13.40;96.90
46890;DHT22;32625;51.080;16.970;2022-09-03T02:15:12;13.50;97.20
46890;DHT22;32625;51.080;16.970;2022-09-03T02:17:43;13.40;96.80
46890;DHT22;32625;51.080;16.970;2022-09-03T02:20:17;13.40;97.00
46890;DHT22;32625;51.080;16.970;2022-09-03T02:22:47;13.40;97.40
46890;DHT22;32625;51.080;16.970;2022-09-03T02:25:16;13.40;97.20
46890;DHT22;32625;51.080;16.970;2022-09-03T02:27:44;13.30;97.40
46890;DHT22;32625;51.080;16.970;2022-09-03T02:30:12;13.20;97.50
46890;DHT22;32625;51.080;16.970;2022-09-03T02:32:39;13.20;97.80
46890;DHT22;32625;51.080;16.970;2022-09-03T02:35:07;13.20;98.10
46890;DHT22;32625;51.080;16.970;2022-09-03T02:37:35;13.10;98.40
46890;DHT22;32625;51.080;16.970;2022-09-03T02:40:02;13.20;98.70
46890;DHT22;32625;51.080;16.970;2022-09-03T02:42:35;13.10;97.90
46890;DHT22;32625;51.080;16.970;2022-09-03T02:45:15;13.10;97.50
46890;DHT22;32625;51.080;16.970;2022-09-03T02:47:46;13.10;98.10
46890;DHT22;32625;51.080;16.970;2022-09-03T02:50:15;13.10;97.70
46890;DHT22;32625;51.080;16.970;2022-09-03T02:52:42;13.10;97.20
46890;DHT22;32625;51.080;16.970;2022-09-03T02:55:09;13.00;97.80
46890;DHT22;32625;51.080;16.970;2022-09-03T02:57:37;12.90;97.60
46890;DHT22;32625;51.080;16.970;2022-09-03T03:00:04;12.90;98.10
46890;DHT22;32625;51.080;16.970;2022-09-03T03:02:32;12.70;98.60
46890;DHT22;32625;51.080;16.970;2022-09-03T03:04:59;12.60;98.70
46890;DHT22;32625;51.080;16.970;2022-09-03T03:07:35;12.60;99.00
46890;DHT22;32625;51.080;16.970;2022-09-03T03:10:04;12.50;99.90
46890;DHT22;32625;51.080;16.970;2022-09-03T03:12:32;12.40;99.90
46890;DHT22;32625;51.080;16.970;2022-09-03T03:15:01;12.40;99.90
46890;DHT22;32625;51.080;16.970;2022-09-03T03:17:29;12.30;99.90
46890;DHT22;32625;51.080;16.970;2022-09-03T03:19:56;12.30;99.90
46890;DHT22;32625;51.080;16.970;2022-09-03T03:22:23;12.30;99.90
46890;DHT22;32625;51.080;16.970;2022-09-03T03:24:51;12.30;99.90
46890;DHT22;32625;51.080;16.970;2022-09-03T03:27:19;12.20;99.90
46890;DHT22;32625;51.080;16.970;2022-09-03T03:29:46;12.30;99.90
46890;DHT22;32625;51.080;16.970;2022-09-03T03:32:13;12.20;99.90
46890;DHT22;32625;51.080;16.970;2022-09-03T03:34:42;12.20;99.90
46890;DHT22;32625;51.080;16.970;2022-09-03T03:37:09;12.10;99.90
46890;DHT22;32625;51.080;16.970;2022-09-03T03:39:36;12.10;99.90
46890;DHT22;32625;51.080;16.970;2022-09-03T03:42:03;12.10;99.90
46890;DHT22;32625;51.080;16.970;2022-09-03T03:44:31;12.10;99.90
46890;DHT22;32625;51.080;16.970;2022-09-03T03:46:59;12.00;99.90
46890;DHT22;32625;51.080;16.970;2022-09-03T03:49:26;12.00;99.90
46890;DHT22;32625;51.080;16.970;2022-09-03T03:51:53;12.00;99.90
46890;DHT22;32625;51.080;16.970;2022-09-03T03:54:20;11.90;99.90
46890;DHT22;32625;51.080;16.970;2022-09-03T03:56:48;11.90;99.90
46890;DHT22;32625;51.080;16.970;2022-09-03T03:59:21;11.80;99.90
46890;DHT22;32625;51.080;16.970;2022-09-03T04:01:48;11.70;99.90
46890;DHT22;32625;51.080;16.970;2022-09-03T04:04:16;11.70;99.90
46890;DHT22;32625;51.080;16.970;2022-09-03T04:06:44;11.60;99.90
46890;DHT22;32625;51.080;16.970;2022-09-03T04:09:11;11.60;99.90
46890;DHT22;32625;51.080;16.970;2022-09-03T04:11:38;11.60;99.90
46890;DHT22;32625;51.080;16.970;2022-09-03T04:14:05;11.60;99.90
46890;DHT22;32625;51.080;16.970;2022-09-03T04:16:33;11.60;99.90
46890;DHT22;32625;51.080;16.970;2022-09-03T04:19:00;11.50;99.90
46890;DHT22;32625;51.080;16.970;2022-09-03T04:21:29;11.40;99.90
46890;DHT22;32625;51.080;16.970;2022-09-03T04:23:57;11.50;99.90
46890;DHT22;32625;51.080;16.970;2022-09-03T04:26:27;11.60;99.90
46890;DHT22;32625;51.080;16.970;2022-09-03T04:29:03;11.50;99.90
46890;DHT22;32625;51.080;16.970;2022-09-03T04:31:31;11.50;99.90
46890;DHT22;32625;51.080;16.970;2022-09-03T04:33:59;11.40;99.90
46890;DHT22;32625;51.080;16.970;2022-09-03T04:36:28;11.40;99.90
46890;DHT22;32625;51.080;16.970;2022-09-03T04:39:00;11.40;99.90
46890;DHT22;32625;51.080;16.970;2022-09-03T04:41:29;11.40;99.90
46890;DHT22;32625;51.080;16.970;2022-09-03T04:43:57;11.40;99.90
46890;DHT22;32625;51.080;16.970;2022-09-03T04:46:27;11.40;99.90
46890;DHT22;32625;51.080;16.970;2022-09-03T04:49:00;11.40;99.90
46890;DHT22;32625;51.080;16.970;2022-09-03T04:51:28;11.30;99.90
46890;DHT22;32625;51.080;16.970;2022-09-03T04:54:00;11.30;99.90
46890;DHT22;32625;51.080;16.970;2022-09-03T04:56:33;11.30;99.90
46890;DHT22;32625;51.080;16.970;2022-09-03T04:59:06;11.30;99.90
46890;DHT22;32625;51.080;16.970;2022-09-03T05:01:37;11.30;99.90
46890;DHT22;32625;51.080;16.970;2022-09-03T05:04:06;11.40;99.90
46890;DHT22;32625;51.080;16.970;2022-09-03T05:06:35;11.50;99.90
46890;DHT22;32625;51.080;16.970;2022-09-03T05:09:04;11.50;99.90
46890;DHT22;32625;51.080;16.970;2022-09-03T05:11:31;11.60;99.90
46890;DHT22;32625;51.080;16.970;2022-09-03T05:13:59;11.60;99.90
46890;DHT22;32625;51.080;16.970;2022-09-03T05:16:27;11.60;99.90
46890;DHT22;32625;51.080;16.970;2022-09-03T05:18:57;11.70;99.90
46890;DHT22;32625;51.080;16.970;2022-09-03T05:21:26;11.70;99.90
46890;DHT22;32625;51.080;16.970;2022-09-03T05:23:55;11.70;99.90
46890;DHT22;32625;51.080;16.970;2022-09-03T05:26:27;11.80;99.90
46890;DHT22;32625;51.080;16.970;2022-09-03T05:28:56;11.90;99.90
46890;DHT22;32625;51.080;16.970;2022-09-03T05:31:25;12.00;99.90
46890;DHT22;32625;51.080;16.970;2022-09-03T05:33:57;11.90;99.90
46890;DHT22;32625;51.080;16.970;2022-09-03T05:36:27;12.00;99.90
46890;DHT22;32625;51.080;16.970;2022-09-03T05:38:54;12.10;99.90
46890;DHT22;32625;51.080;16.970;2022-09-03T05:41:24;12.10;99.90
46890;DHT22;32625;51.080;16.970;2022-09-03T05:43:52;12.10;99.90
46890;DHT22;32625;51.080;16.970;2022-09-03T05:46:28;12.10;99.90
46890;DHT22;32625;51.080;16.970;2022-09-03T05:49:03;12.20;99.90
46890;DHT22;32625;51.080;16.970;2022-09-03T05:51:32;12.20;99.90
46890;DHT22;32625;51.080;16.970;2022-09-03T05:54:00;12.20;99.90
46890;DHT22;32625;51.080;16.970;2022-09-03T05:56:29;12.30;99.90
46890;DHT22;32625;51.080;16.970;2022-09-03T05:58:59;12.30;99.90
46890;DHT22;32625;51.080;16.970;2022-09-03T06:01:30;12.40;99.90
46890;DHT22;32625;51.080;16.970;2022-09-03T06:04:06;12.30;99.90
46890;DHT22;32625;51.080;16.970;2022-09-03T06:06:35;12.30;99.90
46890;DHT22;32625;51.080;16.970;2022-09-03T06:09:05;12.50;99.90
46890;DHT22;32625;51.080;16.970;2022-09-03T06:11:34;12.50;99.90
46890;DHT22;32625;51.080;16.970;2022-09-03T06:14:04;12.50;99.90
46890;DHT22;32625;51.080;16.970;2022-09-03T06:16:33;12.60;99.90
46890;DHT22;32625;51.080;16.970;2022-09-03T06:19:02;12.60;99.90
46890;DHT22;32625;51.080;16.970;2022-09-03T06:21:29;12.70;99.90
46890;DHT22;32625;51.080;16.970;2022-09-03T06:23:57;12.80;99.90
46890;DHT22;32625;51.080;16.970;2022-09-03T06:26:26;12.80;99.90
46890;DHT22;32625;51.080;16.970;2022-09-03T06:28:55;12.90;99.90
46890;DHT22;32625;51.080;16.970;2022-09-03T06:31:23;12.90;99.90
46890;DHT22;32625;51.080;16.970;2022-09-03T06:33:51;12.90;99.90
46890;DHT22;32625;51.080;16.970;2022-09-03T06:36:22;13.00;99.90
46890;DHT22;32625;51.080;16.970;2022-09-03T06:38:54;13.10;99.90
46890;DHT22;32625;51.080;16.970;2022-09-03T06:41:24;13.20;99.90
46890;DHT22;32625;51.080;16.970;2022-09-03T06:43:54;13.20;99.90
46890;DHT22;32625;51.080;16.970;2022-09-03T06:46:23;13.30;99.90
46890;DHT22;32625;51.080;16.970;2022-09-03T06:48:50;13.30;99.90
46890;DHT22;32625;51.080;16.970;2022-09-03T06:51:22;13.30;99.90
46890;DHT22;32625;51.080;16.970;2022-09-03T06:53:53;13.40;99.90
46890;DHT22;32625;51.080;16.970;2022-09-03T06:56:23;13.40;99.90
46890;DHT22;32625;51.080;16.970;2022-09-03T06:58:55;13.50;99.90
46890;DHT22;32625;51.080;16.970;2022-09-03T07:01:27;13.50;99.90
46890;DHT22;32625;51.080;16.970;2022-09-03T07:04:02;13.60;99.90
46890;DHT22;32625;51.080;16.970;2022-09-03T07:06:35;13.60;99.90
46890;DHT22;32625;51.080;16.970;2022-09-03T07:09:06;13.70;99.90
46890;DHT22;32625;51.080;16.970;2022-09-03T07:11:34;13.80;99.90
46890;DHT22;32625;51.080;16.970;2022-09-03T07:14:03;13.80;99.90
46890;DHT22;32625;51.080;16.970;2022-09-03T07:16:35;13.90;99.90
46890;DHT22;32625;51.080;16.970;2022-09-03T07:19:04;14.00;99.90
46890;DHT22;32625;51.080;16.970;2022-09-03T07:21:33;14.00;99.90
46890;DHT22;32625;51.080;16.970;2022-09-03T07:24:04;14.00;99.90
46890;DHT22;32625;51.080;16.970;2022-09-03T07:26:34;14.10;99.90
46890;DHT22;32625;51.080;16.970;2022-09-03T07:29:02;14.10;99.90
46890;DHT22;32625;51.080;16.970;2022-09-03T07:31:32;14.20;99.90
46890;DHT22;32625;51.080;16.970;2022-09-03T07:34:02;14.40;99.90
46890;DHT22;32625;51.080;16.970;2022-09-03T07:36:43;14.50;99.90
46890;DHT22;32625;51.080;16.970;2022-09-03T07:39:15;14.50;99.90
46890;DHT22;32625;51.080;16.970;2022-09-03T07:41:44;14.50;99.90
46890;DHT22;32625;51.080;16.970;2022-09-03T07:44:13;14.50;99.90
46890;DHT22;32625;51.080;16.970;2022-09-03T07:46:42;14.60;99.90
46890;DHT22;32625;51.080;16.970;2022-09-03T07:49:11;14.60;99.90
46890;DHT22;32625;51.080;16.970;2022-09-03T07:51:39;14.70;99.90
46890;DHT22;32625;51.080;16.970;2022-09-03T07:54:08;14.80;99.90
46890;DHT22;32625;51.080;16.970;2022-09-03T07:56:38;15.00;99.90
46890;DHT22;32625;51.080;16.970;2022-09-03T07:59:06;15.00;99.90
46890;DHT22;32625;51.080;16.970;2022-09-03T08:01:34;15.10;99.90
46890;DHT22;32625;51.080;16.970;2022-09-03T08:04:01;15.20;99.90
46890;DHT22;32625;51.080;16.970;2022-09-03T08:06:31;15.30;99.90
46890;DHT22;32625;51.080;16.970;2022-09-03T08:09:06;15.40;99.90
46890;DHT22;32625;51.080;16.970;2022-09-03T08:11:37;15.50;99.90
46890;DHT22;32625;51.080;16.970;2022-09-03T08:14:10;15.50;99.90
46890;DHT22;32625;51.080;16.970;2022-09-03T08:16:39;15.50;99.90
46890;DHT22;32625;51.080;16.970;2022-09-03T08:19:08;15.60;99.90
46890;DHT22;32625;51.080;16.970;2022-09-03T08:21:37;15.80;99.90
46890;DHT22;32625;51.080;16.970;2022-09-03T08:24:04;15.90;99.90
46890;DHT22;32625;51.080;16.970;2022-09-03T08:26:34;15.90;99.90
46890;DHT22;32625;51.080;16.970;2022-09-03T08:29:03;16.00;99.90
46890;DHT22;32625;51.080;16.970;2022-09-03T08:31:31;16.10;99.90
46890;DHT22;32625;51.080;16.970;2022-09-03T08:34:00;16.20;99.90
46890;DHT22;32625;51.080;16.970;2022-09-03T08:36:33;16.30;99.90
46890;DHT22;32625;51.080;16.970;2022-09-03T08:39:03;16.40;99.90
46890;DHT22;32625;51.080;16.970;2022-09-03T08:49:16;16.80;99.80
46890;DHT22;32625;51.080;16.970;2022-09-03T08:51:44;16.80;99.90
46890;DHT22;32625;51.080;16.970;2022-09-03T08:54:14;16.90;99.90
46890;DHT22;32625;51.080;16.970;2022-09-03T08:56:42;17.00;99.70
46890;DHT22;32625;51.080;16.970;2022-09-03T08:59:09;17.00;99.30
46890;DHT22;32625;51.080;16.970;2022-09-03T09:01:47;17.00;99.40
46890;DHT22;32625;51.080;16.970;2022-09-03T09:04:46;16.90;98.20
46890;DHT22;32625;51.080;16.970;2022-09-03T09:07:27;17.10;98.80
46890;DHT22;32625;51.080;16.970;2022-09-03T09:21:42;17.70;98.20
46890;DHT22;32625;51.080;16.970;2022-09-03T09:24:21;17.70;97.40
46890;DHT22;32625;51.080;16.970;2022-09-03T09:26:54;17.80;96.50
46890;DHT22;32625;51.080;16.970;2022-09-03T09:29:30;17.90;97.10
46890;DHT22;32625;51.080;16.970;2022-09-03T09:31:58;18.00;97.00
46890;DHT22;32625;51.080;16.970;2022-09-03T09:34:25;18.00;97.20
46890;DHT22;32625;51.080;16.970;2022-09-03T09:36:54;18.10;97.00
46890;DHT22;32625;51.080;16.970;2022-09-03T09:39:22;18.10;95.80
46890;DHT22;32625;51.080;16.970;2022-09-03T09:41:58;18.00;95.40
46890;DHT22;32625;51.080;16.970;2022-09-03T09:44:25;18.10;95.10
46890;DHT22;32625;51.080;16.970;2022-09-03T09:47:21;18.10;95.50
46890;DHT22;32625;51.080;16.970;2022-09-03T09:49:53;18.30;94.70
46890;DHT22;32625;51.080;16.970;2022-09-03T09:52:23;18.30;95.00
46890;DHT22;32625;51.080;16.970;2022-09-03T09:54:53;18.40;94.50
46890;DHT22;32625;51.080;16.970;2022-09-03T09:57:33;18.50;94.20
46890;DHT22;32625;51.080;16.970;2022-09-03T10:00:05;18.60;94.00
46890;DHT22;32625;51.080;16.970;2022-09-03T10:02:50;18.50;94.00
46890;DHT22;32625;51.080;16.970;2022-09-03T10:05:27;18.50;93.70
46890;DHT22;32625;51.080;16.970;2022-09-03T10:08:22;18.50;94.20
46890;DHT22;32625;51.080;16.970;2022-09-03T10:10:49;18.70;94.10
46890;DHT22;32625;51.080;16.970;2022-09-03T10:13:40;18.80;91.20
46890;DHT22;32625;51.080;16.970;2022-09-03T10:16:32;18.90;90.50
46890;DHT22;32625;51.080;16.970;2022-09-03T10:19:28;19.00;90.10
46890;DHT22;32625;51.080;16.970;2022-09-03T10:22:15;19.20;88.30
46890;DHT22;32625;51.080;16.970;2022-09-03T10:24:53;19.30;88.70
46890;DHT22;32625;51.080;16.970;2022-09-03T10:27:23;19.30;88.20
46890;DHT22;32625;51.080;16.970;2022-09-03T10:29:51;19.40;88.10
46890;DHT22;32625;51.080;16.970;2022-09-03T10:35:29;19.50;88.60
46890;DHT22;32625;51.080;16.970;2022-09-03T10:38:26;19.40;87.50
46890;DHT22;32625;51.080;16.970;2022-09-03T10:44:16;19.60;85.50
46890;DHT22;32625;51.080;16.970;2022-09-03T10:49:57;19.50;84.20
46890;DHT22;32625;51.080;16.970;2022-09-03T11:01:25;19.70;86.60
46890;DHT22;32625;51.080;16.970;2022-09-03T11:06:28;19.70;84.80
46890;DHT22;32625;51.080;16.970;2022-09-03T11:09:12;19.70;84.60
46890;DHT22;32625;51.080;16.970;2022-09-03T11:11:46;19.80;85.50
46890;DHT22;32625;51.080;16.970;2022-09-03T11:14:43;19.70;84.70
46890;DHT22;32625;51.080;16.970;2022-09-03T11:17:25;19.80;85.60
46890;DHT22;32625;51.080;16.970;2022-09-03T11:20:17;19.80;81.60
46890;DHT22;32625;51.080;16.970;2022-09-03T11:22:46;19.90;82.30
46890;DHT22;32625;51.080;16.970;2022-09-03T11:25:19;20.00;83.30
46890;DHT22;32625;51.080;16.970;2022-09-03T11:28:02;20.10;81.70
46890;DHT22;32625;51.080;16.970;2022-09-03T11:31:07;20.00;82.50
46890;DHT22;32625;51.080;16.970;2022-09-03T11:42:37;19.90;85.40
46890;DHT22;32625;51.080;16.970;2022-09-03T11:47:58;19.40;83.00
46890;DHT22;32625;51.080;16.970;2022-09-03T11:50:31;19.40;85.10
46890;DHT22;32625;51.080;16.970;2022-09-03T11:58:26;20.20;82.30
46890;DHT22;32625;51.080;16.970;2022-09-03T12:00:56;20.10;79.90
46890;DHT22;32625;51.080;16.970;2022-09-03T12:03:27;19.90;81.10
46890;DHT22;32625;51.080;16.970;2022-09-03T12:20:13;19.40;83.90
46890;DHT22;32625;51.080;16.970;2022-09-03T12:22:41;19.30;82.90
46890;DHT22;32625;51.080;16.970;2022-09-03T12:25:11;19.20;84.30
46890;DHT22;32625;51.080;16.970;2022-09-03T12:27:41;19.20;86.90
46890;DHT22;32625;51.080;16.970;2022-09-03T12:30:18;19.30;83.90
46890;DHT22;32625;51.080;16.970;2022-09-03T12:32:47;19.20;85.80
46890;DHT22;32625;51.080;16.970;2022-09-03T12:35:19;19.20;86.70
46890;DHT22;32625;51.080;16.970;2022-09-03T12:38:06;19.20;87.30
46890;DHT22;32625;51.080;16.970;2022-09-03T12:40:42;19.10;89.00
46890;DHT22;32625;51.080;16.970;2022-09-03T12:43:29;19.10;88.30
46890;DHT22;32625;51.080;16.970;2022-09-03T12:46:13;19.00;88.80
46890;DHT22;32625;51.080;16.970;2022-09-03T12:49:19;19.00;89.70
46890;DHT22;32625;51.080;16.970;2022-09-03T12:52:03;19.00;89.60
46890;DHT22;32625;51.080;16.970;2022-09-03T12:54:36;19.00;90.10
46890;DHT22;32625;51.080;16.970;2022-09-03T12:57:08;19.00;91.20
46890;DHT22;32625;51.080;16.970;2022-09-03T12:59:37;19.20;87.70
46890;DHT22;32625;51.080;16.970;2022-09-03T13:02:21;19.40;87.90
46890;DHT22;32625;51.080;16.970;2022-09-03T13:04:51;19.50;86.70
46890;DHT22;32625;51.080;16.970;2022-09-03T13:07:32;19.50;86.60
46890;DHT22;32625;51.080;16.970;2022-09-03T13:10:04;19.50;85.90
46890;DHT22;32625;51.080;16.970;2022-09-03T13:12:45;19.40;87.60
46890;DHT22;32625;51.080;16.970;2022-09-03T13:15:21;19.30;87.90
46890;DHT22;32625;51.080;16.970;2022-09-03T13:18:01;19.20;89.20
46890;DHT22;32625;51.080;16.970;2022-09-03T13:23:24;19.00;90.80
46890;DHT22;32625;51.080;16.970;2022-09-03T13:28:54;19.00;90.50
46890;DHT22;32625;51.080;16.970;2022-09-03T13:31:33;19.00;87.30
46890;DHT22;32625;51.080;16.970;2022-09-03T13:39:47;18.90;91.00
46890;DHT22;32625;51.080;16.970;2022-09-03T13:42:29;19.00;90.40
46890;DHT22;32625;51.080;16.970;2022-09-03T13:45:20;19.00;88.30
46890;DHT22;32625;51.080;16.970;2022-09-03T13:47:55;19.00;92.10
46890;DHT22;32625;51.080;16.970;2022-09-03T13:50:50;19.30;91.80
46890;DHT22;32625;51.080;16.970;2022-09-03T13:53:41;19.80;86.20
46890;DHT22;32625;51.080;16.970;2022-09-03T13:59:13;19.90;83.70
46890;DHT22;32625;51.080;16.970;2022-09-03T14:02:11;19.70;84.00
46890;DHT22;32625;51.080;16.970;2022-09-03T14:12:43;19.20;86.80
46890;DHT22;32625;51.080;16.970;2022-09-03T14:18:48;19.20;87.40
46890;DHT22;32625;51.080;16.970;2022-09-03T14:21:26;19.80;89.00
46890;DHT22;32625;51.080;16.970;2022-09-03T14:24:00;20.60;81.40
46890;DHT22;32625;51.080;16.970;2022-09-03T14:26:32;21.50;80.70
46890;DHT22;32625;51.080;16.970;2022-09-03T14:29:15;21.20;79.20
46890;DHT22;32625;51.080;16.970;2022-09-03T14:56:28;20.30;81.80
46890;DHT22;32625;51.080;16.970;2022-09-03T15:01:38;20.00;85.20
46890;DHT22;32625;51.080;16.970;2022-09-03T15:12:17;19.60;87.00
46890;DHT22;32625;51.080;16.970;2022-09-03T15:14:56;19.60;86.90
46890;DHT22;32625;51.080;16.970;2022-09-03T15:28:45;19.30;86.00
46890;DHT22;32625;51.080;16.970;2022-09-03T15:37:10;19.20;89.30
46890;DHT22;32625;51.080;16.970;2022-09-03T15:39:42;19.20;87.30
46890;DHT22;32625;51.080;16.970;2022-09-03T15:42:24;19.20;87.30
46890;DHT22;32625;51.080;16.970;2022-09-03T15:44:55;19.20;86.00
46890;DHT22;32625;51.080;16.970;2022-09-03T15:50:47;19.30;87.60
46890;DHT22;32625;51.080;16.970;2022-09-03T15:56:18;19.20;88.90
46890;DHT22;32625;51.080;16.970;2022-09-03T16:08:01;18.90;91.00
46890;DHT22;32625;51.080;16.970;2022-09-03T16:10:15;18.80;90.80
46890;DHT22;32625;51.080;16.970;2022-09-03T16:18:31;18.70;91.30
46890;DHT22;32625;51.080;16.970;2022-09-03T16:21:13;18.60;92.30
46890;DHT22;32625;51.080;16.970;2022-09-03T16:26:53;18.50;91.60
46890;DHT22;32625;51.080;16.970;2022-09-03T16:29:27;18.40;91.20
46890;DHT22;32625;51.080;16.970;2022-09-03T16:31:58;18.40;91.90
46890;DHT22;32625;51.080;16.970;2022-09-03T16:34:39;18.40;92.20
46890;DHT22;32625;51.080;16.970;2022-09-03T16:40:10;18.30;92.30
46890;DHT22;32625;51.080;16.970;2022-09-03T16:48:07;18.20;93.20
46890;DHT22;32625;51.080;16.970;2022-09-03T17:04:48;18.00;94.50
46890;DHT22;32625;51.080;16.970;2022-09-03T17:23:41;17.60;98.50
46890;DHT22;32625;51.080;16.970;2022-09-03T17:28:56;17.50;98.70
46890;DHT22;32625;51.080;16.970;2022-09-03T17:37:56;17.30;99.70
46890;DHT22;32625;51.080;16.970;2022-09-03T17:48:57;16.90;99.90
46890;DHT22;32625;51.080;16.970;2022-09-03T17:51:48;16.90;99.90
46890;DHT22;32625;51.080;16.970;2022-09-03T17:59:53;16.70;99.90
46890;DHT22;32625;51.080;16.970;2022-09-03T18:02:32;16.70;99.90
46890;DHT22;32625;51.080;16.970;2022-09-03T18:05:17;16.60;99.90
46890;DHT22;32625;51.080;16.970;2022-09-03T18:07:57;16.60;99.90
46890;DHT22;32625;51.080;16.970;2022-09-03T18:10:33;16.50;99.90
46890;DHT22;32625;51.080;16.970;2022-09-03T18:13:49;16.50;99.90
46890;DHT22;32625;51.080;16.970;2022-09-03T18:16:29;16.40;99.90
46890;DHT22;32625;51.080;16.970;2022-09-03T18:19:12;16.40;99.90
46890;DHT22;32625;51.080;16.970;2022-09-03T18:21:46;16.40;99.90
46890;DHT22;32625;51.080;16.970;2022-09-03T18:24:41;16.40;99.90
46890;DHT22;32625;51.080;16.970;2022-09-03T18:27:35;16.30;99.90
46890;DHT22;32625;51.080;16.970;2022-09-03T18:30:26;16.20;99.90
46890;DHT22;32625;51.080;16.970;2022-09-03T18:33:13;16.20;99.90
46890;DHT22;32625;51.080;16.970;2022-09-03T18:36:00;16.20;99.90
46890;DHT22;32625;51.080;16.970;2022-09-03T18:38:46;16.10;99.90
46890;DHT22;32625;51.080;16.970;2022-09-03T18:41:59;16.00;99.90
46890;DHT22;32625;51.080;16.970;2022-09-03T18:45:16;15.90;99.90
46890;DHT22;32625;51.080;16.970;2022-09-03T19:00:35;15.60;99.90
46890;DHT22;32625;51.080;16.970;2022-09-03T19:07:01;15.50;99.90
46890;DHT22;32625;51.080;16.970;2022-09-03T19:15:41;15.30;99.90
46890;DHT22;32625;51.080;16.970;2022-09-03T19:21:39;15.00;99.90
46890;DHT22;32625;51.080;16.970;2022-09-03T19:24:29;15.00;99.90
46890;DHT22;32625;51.080;16.970;2022-09-03T19:30:31;15.10;99.90
46890;DHT22;32625;51.080;16.970;2022-09-03T19:34:11;15.10;99.90
46890;DHT22;32625;51.080;16.970;2022-09-03T19:42:13;15.10;99.90
46890;DHT22;32625;51.080;16.970;2022-09-03T19:51:48;14.80;99.90
46890;DHT22;32625;51.080;16.970;2022-09-03T19:54:36;14.80;99.90
46890;DHT22;32625;51.080;16.970;2022-09-03T19:57:23;14.70;99.90
46890;DHT22;32625;51.080;16.970;2022-09-03T20:00:11;14.80;99.90
46890;DHT22;32625;51.080;16.970;2022-09-03T20:03:00;14.70;99.90
46890;DHT22;32625;51.080;16.970;2022-09-03T20:05:47;14.70;99.90
46890;DHT22;32625;51.080;16.970;2022-09-03T20:08:37;14.80;99.90
46890;DHT22;32625;51.080;16.970;2022-09-03T20:11:24;14.70;99.90
46890;DHT22;32625;51.080;16.970;2022-09-03T20:13:56;14.60;99.90
46890;DHT22;32625;51.080;16.970;2022-09-03T20:19:35;14.70;99.90
46890;DHT22;32625;51.080;16.970;2022-09-03T20:28:07;14.60;99.90
46890;DHT22;32625;51.080;16.970;2022-09-03T20:39:14;14.40;99.90
46890;DHT22;32625;51.080;16.970;2022-09-03T20:41:57;14.40;99.90
46890;DHT22;32625;51.080;16.970;2022-09-03T20:44:52;14.30;99.90
46890;DHT22;32625;51.080;16.970;2022-09-03T20:50:20;14.30;99.90
46890;DHT22;32625;51.080;16.970;2022-09-03T20:53:36;14.20;99.90
46890;DHT22;32625;51.080;16.970;2022-09-03T21:01:19;14.10;99.90
46890;DHT22;32625;51.080;16.970;2022-09-03T21:03:52;13.80;99.90
46890;DHT22;32625;51.080;16.970;2022-09-03T21:14:50;14.00;99.90
46890;DHT22;32625;51.080;16.970;2022-09-03T21:26:06;13.80;99.90
46890;DHT22;32625;51.080;16.970;2022-09-03T21:28:38;13.70;99.90
46890;DHT22;32625;51.080;16.970;2022-09-03T21:31:34;13.70;99.90
46890;DHT22;32625;51.080;16.970;2022-09-03T21:34:08;13.70;99.90
46890;DHT22;32625;51.080;16.970;2022-09-03T21:36:39;13.70;99.90
46890;DHT22;32625;51.080;16.970;2022-09-03T21:39:29;13.70;99.90
46890;DHT22;32625;51.080;16.970;2022-09-03T21:42:00;13.60;99.90
46890;DHT22;32625;51.080;16.970;2022-09-03T21:44:58;13.70;99.90
46890;DHT22;32625;51.080;16.970;2022-09-03T21:47:29;13.60;99.90
46890;DHT22;32625;51.080;16.970;2022-09-03T21:50:07;13.70;99.90
46890;DHT22;32625;51.080;16.970;2022-09-03T21:52:50;13.60;99.90
46890;DHT22;32625;51.080;16.970;2022-09-03T21:55:20;13.60;99.90
46890;DHT22;32625;51.080;16.970;2022-09-03T21:58:00;13.60;99.90
46890;DHT22;32625;51.080;16.970;2022-09-03T22:00:29;13.50;99.90
46890;DHT22;32625;51.080;16.970;2022-09-03T22:02:59;13.50;99.90
46890;DHT22;32625;51.080;16.970;2022-09-03T22:05:37;13.50;99.90
46890;DHT22;32625;51.080;16.970;2022-09-03T22:08:22;13.40;99.90
46890;DHT22;32625;51.080;16.970;2022-09-03T22:11:06;13.40;99.90
46890;DHT22;32625;51.080;16.970;2022-09-03T22:13:43;13.40;99.90
46890;DHT22;32625;51.080;16.970;2022-09-03T22:18:43;13.30;99.90
46890;DHT22;32625;51.080;16.970;2022-09-03T22:21:20;13.40;99.90